Time;durP1;ratioP1;P1;durP2;ratioP2;P2;SDS_P1;SDS_P2;PMS_P1;PMS_P2;Temp;Humidity;BMP_temperature;BMP_pressure;BME280_temperature;BME280_humidity;BME280_pressure;Samples;Min_cycle;Max_cycle;Signal;HPM_P1;HPM_P2
2023/06/28 00:02:14;;;;;;;10.32;6.60;;;15.00;99.90;;;;;;4841620;29;20057;-78
2023/06/28 00:04:42;;;;;;;8.38;6.72;;;14.90;99.90;;;;;;4840877;29;20045;-80
2023/06/28 00:07:10;;;;;;;10.85;6.43;;;15.00;99.90;;;;;;4841614;29;20046;-79
2023/06/28 00:09:38;;;;;;;9.30;6.15;;;15.00;99.90;;;;;;4841113;29;20058;-78
2023/06/28 00:12:07;;;;;;;9.32;6.35;;;15.10;99.90;;;;;;4842248;29;20069;-79
2023/06/28 00:14:34;;;;;;;7.80;5.85;;;15.10;99.90;;;;;;4841550;29;20392;-81
2023/06/28 00:17:01;;;;;;;8.30;6.47;;;15.10;99.90;;;;;;4845200;29;20077;-80
2023/06/28 00:19:30;;;;;;;8.65;6.68;;;15.20;99.90;;;;;;4853707;29;20067;-80
2023/06/28 00:21:57;;;;;;;9.25;6.53;;;15.10;99.90;;;;;;4852821;29;20072;-80
2023/06/28 00:24:25;;;;;;;10.38;7.28;;;15.00;99.90;;;;;;4856776;29;20553;-78
2023/06/28 00:26:52;;;;;;;10.43;7.70;;;15.10;99.90;;;;;;4854891;29;20060;-77
2023/06/28 00:29:20;;;;;;;13.15;7.50;;;15.10;99.90;;;;;;4842105;29;20518;-78
2023/06/28 00:31:48;;;;;;;10.38;7.65;;;15.20;99.90;;;;;;4826128;29;20141;-79
2023/06/28 00:34:17;;;;;;;8.60;6.50;;;15.30;99.90;;;;;;4825328;29;20057;-78
2023/06/28 00:36:44;;;;;;;10.10;6.78;;;15.40;99.90;;;;;;4841009;29;20102;-78
2023/06/28 00:39:12;;;;;;;9.63;6.50;;;15.40;99.90;;;;;;4831843;29;20060;-79
2023/06/28 00:41:39;;;;;;;6.30;5.60;;;15.40;99.90;;;;;;4823001;29;20471;-78
2023/06/28 00:44:06;;;;;;;11.18;5.47;;;15.40;99.90;;;;;;4823797;29;20338;-77
2023/06/28 00:46:35;;;;;;;7.90;5.38;;;15.40;99.90;;;;;;4824071;29;20061;-78
2023/06/28 00:49:03;;;;;;;6.07;4.80;;;15.50;99.90;;;;;;4823388;29;20080;-76
2023/06/28 00:51:32;;;;;;;7.03;5.07;;;15.50;99.90;;;;;;4840238;29;20038;-79
2023/06/28 00:54:00;;;;;;;9.35;6.03;;;15.30;99.90;;;;;;4823853;29;20042;-77
2023/06/28 00:56:28;;;;;;;9.15;5.90;;;15.20;99.90;;;;;;4822935;29;20054;-78
2023/06/28 00:58:56;;;;;;;10.27;6.32;;;15.20;99.90;;;;;;4823024;29;20054;-76
2023/06/28 01:01:25;;;;;;;9.45;6.20;;;15.30;99.90;;;;;;4823360;29;20102;-78
2023/06/28 01:03:54;;;;;;;9.95;5.97;;;15.30;99.90;;;;;;4823855;29;20535;-78
2023/06/28 01:06:25;;;;;;;8.32;5.55;;;15.30;99.90;;;;;;4840240;29;20042;-78
2023/06/28 01:08:53;;;;;;;10.43;6.20;;;15.30;99.90;;;;;;4840246;29;20177;-76
2023/06/28 01:11:21;;;;;;;12.55;6.15;;;15.20;99.90;;;;;;4839895;29;20054;-78
2023/06/28 01:13:50;;;;;;;10.20;6.45;;;15.30;99.90;;;;;;4840762;29;20042;-80
2023/06/28 01:16:17;;;;;;;13.23;6.70;;;15.30;99.90;;;;;;4823916;29;20106;-80
2023/06/28 01:18:45;;;;;;;9.93;5.93;;;15.30;99.90;;;;;;4839926;29;20137;-81
2023/06/28 01:21:17;;;;;;;12.38;6.47;;;15.30;99.90;;;;;;4830769;29;20066;-79
2023/06/28 01:23:46;;;;;;;9.00;6.47;;;15.20;99.90;;;;;;4839798;29;20190;-80
2023/06/28 01:26:14;;;;;;;8.40;6.18;;;15.10;99.90;;;;;;4831846;29;20046;-78
2023/06/28 01:28:42;;;;;;;8.15;6.20;;;15.10;99.90;;;;;;4840626;29;20045;-80
2023/06/28 01:31:10;;;;;;;10.32;6.63;;;15.10;99.90;;;;;;4841063;29;20047;-79
2023/06/28 01:33:37;;;;;;;12.57;6.93;;;15.00;99.90;;;;;;4840470;29;20050;-79
2023/06/28 01:36:06;;;;;;;12.30;7.45;;;14.90;99.90;;;;;;4822569;29;20049;-77
2023/06/28 01:38:37;;;;;;;9.10;7.22;;;14.90;99.90;;;;;;4822194;29;20041;-79
2023/06/28 01:41:07;;;;;;;9.90;6.95;;;14.90;99.90;;;;;;4835632;29;20402;-77
2023/06/28 01:43:35;;;;;;;14.80;6.90;;;14.90;99.90;;;;;;4839144;29;20042;-79
2023/06/28 01:46:03;;;;;;;13.07;6.80;;;14.80;99.90;;;;;;4839068;29;20125;-78
2023/06/28 01:48:33;;;;;;;15.73;8.63;;;14.80;99.90;;;;;;4823549;29;20102;-78
2023/06/28 01:51:01;;;;;;;9.02;6.43;;;14.90;99.90;;;;;;4815572;29;20046;-78
2023/06/28 01:53:29;;;;;;;11.73;6.55;;;14.80;99.90;;;;;;4838613;29;20061;-77
2023/06/28 01:55:56;;;;;;;10.15;6.90;;;14.80;99.90;;;;;;4812081;29;20050;-78
2023/06/28 01:58:25;;;;;;;7.28;5.63;;;14.80;99.90;;;;;;4822067;29;20574;-79
2023/06/28 02:00:52;;;;;;;7.28;5.95;;;14.70;99.90;;;;;;4822704;29;20183;-78
2023/06/28 02:03:20;;;;;;;11.82;6.97;;;14.60;99.90;;;;;;4838686;29;20347;-78
2023/06/28 02:05:47;;;;;;;10.15;7.45;;;14.60;99.90;;;;;;4838424;29;20507;-78
2023/06/28 02:08:15;;;;;;;8.82;7.10;;;14.70;99.90;;;;;;4822498;29;20064;-80
2023/06/28 02:10:42;;;;;;;9.70;6.60;;;14.70;99.90;;;;;;4822195;29;20064;-77
2023/06/28 02:13:09;;;;;;;8.50;6.20;;;14.80;99.90;;;;;;4822040;29;20061;-78
2023/06/28 02:15:38;;;;;;;8.38;6.72;;;14.70;99.90;;;;;;4822490;29;20471;-78
2023/06/28 02:18:07;;;;;;;12.18;7.38;;;14.70;99.90;;;;;;4838332;29;20046;-77
2023/06/28 02:20:34;;;;;;;10.18;7.80;;;14.80;99.90;;;;;;4821641;29;20145;-80
2023/06/28 02:23:04;;;;;;;9.23;7.18;;;14.80;99.90;;;;;;4838342;29;20080;-80
2023/06/28 02:25:32;;;;;;;10.77;7.65;;;14.80;99.90;;;;;;4822193;29;20077;-80
2023/06/28 02:27:59;;;;;;;8.80;7.47;;;14.90;99.90;;;;;;4822406;29;20038;-79
2023/06/28 02:30:26;;;;;;;10.38;7.25;;;14.90;99.90;;;;;;4839028;29;20104;-78
2023/06/28 02:32:55;;;;;;;9.73;7.05;;;14.90;99.90;;;;;;4840054;29;20334;-80
2023/06/28 02:35:22;;;;;;;8.68;6.63;;;14.80;99.90;;;;;;4839593;29;20058;-80
2023/06/28 02:37:50;;;;;;;10.05;6.43;;;14.70;99.90;;;;;;4837950;29;20038;-79
2023/06/28 02:40:17;;;;;;;7.20;5.82;;;14.70;99.90;;;;;;4821757;29;20060;-78
2023/06/28 02:42:44;;;;;;;7.53;6.00;;;14.70;99.90;;;;;;4838066;29;20485;-79
2023/06/28 02:45:14;;;;;;;8.82;5.82;;;14.60;99.90;;;;;;4838021;29;20053;-80
2023/06/28 02:47:41;;;;;;;12.68;6.43;;;14.60;99.90;;;;;;4821455;29;20069;-78
2023/06/28 02:50:11;;;;;;;9.25;6.82;;;14.60;99.90;;;;;;4828480;29;20053;-78
2023/06/28 02:53:00;;;;;;;10.65;7.75;;;14.60;99.90;;;;;;4821469;29;20144;-80
2023/06/28 02:55:29;;;;;;;15.27;8.45;;;14.60;99.90;;;;;;4815544;29;20193;-79
2023/06/28 02:57:59;;;;;;;11.82;8.63;;;14.70;99.90;;;;;;4822580;29;20102;-79
2023/06/28 03:00:27;;;;;;;12.48;8.05;;;14.70;99.90;;;;;;4821607;29;20057;-78
2023/06/28 03:02:54;;;;;;;9.45;8.10;;;14.70;99.90;;;;;;4820769;29;20514;-77
2023/06/28 03:05:25;;;;;;;13.98;8.60;;;14.80;99.90;;;;;;4836123;29;20046;-78
2023/06/28 03:07:52;;;;;;;12.48;8.60;;;14.70;99.90;;;;;;4835793;29;20054;-80
2023/06/28 03:10:20;;;;;;;12.32;8.27;;;14.70;99.90;;;;;;4837901;29;20048;-80
2023/06/28 03:12:49;;;;;;;11.57;8.77;;;14.70;99.90;;;;;;4821138;29;20049;-79
2023/06/28 03:15:17;;;;;;;10.43;7.90;;;14.80;99.90;;;;;;4821035;29;20065;-79
2023/06/28 03:17:45;;;;;;;12.48;7.78;;;14.80;99.90;;;;;;4821854;29;20060;-80
2023/06/28 03:20:14;;;;;;;9.38;7.95;;;14.80;99.90;;;;;;4828345;29;20133;-79
2023/06/28 03:22:43;;;;;;;11.70;7.43;;;14.80;99.90;;;;;;4824030;29;20057;-79
2023/06/28 03:25:11;;;;;;;11.63;8.00;;;14.80;99.90;;;;;;4816801;29;20510;-80
2023/06/28 03:27:38;;;;;;;11.43;8.02;;;14.90;99.90;;;;;;4820635;29;20042;-79
2023/06/28 03:30:08;;;;;;;9.57;7.85;;;14.90;99.90;;;;;;4822174;29;20049;-80
2023/06/28 03:32:36;;;;;;;13.05;7.68;;;15.00;99.90;;;;;;4821145;29;20062;-81
2023/06/28 03:35:04;;;;;;;11.60;7.40;;;15.00;99.90;;;;;;4837248;29;20042;-81
2023/06/28 03:37:31;;;;;;;12.05;8.13;;;14.90;99.90;;;;;;4838222;29;20495;-82
2023/06/28 03:40:00;;;;;;;14.88;7.63;;;14.90;99.90;;;;;;4814386;29;20069;-80
2023/06/28 03:42:27;;;;;;;11.65;7.45;;;14.90;99.90;;;;;;4839175;29;20506;-79
2023/06/28 03:44:55;;;;;;;11.77;8.00;;;15.00;99.90;;;;;;4836412;29;20086;-80
2023/06/28 03:47:22;;;;;;;10.63;7.82;;;15.00;99.90;;;;;;4813829;29;20070;-82
2023/06/28 03:49:50;;;;;;;9.50;7.28;;;15.00;99.90;;;;;;4837481;29;20041;-80
2023/06/28 03:52:17;;;;;;;10.82;7.65;;;15.00;99.90;;;;;;4829966;29;20054;-80
2023/06/28 03:54:45;;;;;;;9.45;7.05;;;15.10;99.90;;;;;;4821787;29;20771;-79
2023/06/28 03:57:14;;;;;;;12.10;7.07;;;15.10;99.90;;;;;;4838413;29;20046;-80
2023/06/28 03:59:41;;;;;;;8.35;6.80;;;15.10;99.90;;;;;;4822723;29;20050;-79
2023/06/28 04:02:08;;;;;;;8.80;7.68;;;15.00;99.90;;;;;;4837927;29;20775;-77
2023/06/28 04:04:36;;;;;;;13.13;8.30;;;14.90;99.90;;;;;;4837697;29;20049;-80
2023/06/28 04:07:03;;;;;;;11.07;8.45;;;14.80;99.90;;;;;;4840747;29;20525;-80
2023/06/28 04:09:31;;;;;;;9.32;7.85;;;14.80;99.90;;;;;;4839729;29;20058;-79
2023/06/28 04:11:59;;;;;;;11.25;8.70;;;14.80;99.90;;;;;;4837417;29;20534;-80
2023/06/28 04:14:27;;;;;;;9.75;8.40;;;14.80;99.90;;;;;;4838760;29;20042;-79
2023/06/28 04:16:55;;;;;;;11.25;8.52;;;14.90;99.90;;;;;;4837013;29;20050;-80
2023/06/28 04:19:22;;;;;;;11.77;8.63;;;14.90;99.90;;;;;;4837641;29;20046;-78
2023/06/28 04:21:50;;;;;;;9.48;7.80;;;14.90;99.90;;;;;;4838537;29;20042;-78
2023/06/28 04:24:17;;;;;;;10.45;8.20;;;15.00;99.90;;;;;;4840064;29;20038;-79
2023/06/28 04:26:45;;;;;;;9.95;7.93;;;15.00;99.90;;;;;;4839765;29;20170;-78
2023/06/28 04:29:13;;;;;;;11.90;7.15;;;15.00;99.90;;;;;;4840741;29;20057;-80
2023/06/28 04:31:42;;;;;;;9.70;7.30;;;15.00;99.90;;;;;;4840172;29;20082;-81
2023/06/28 04:34:09;;;;;;;14.43;7.95;;;15.00;99.90;;;;;;4839781;29;20041;-80
2023/06/28 04:36:39;;;;;;;11.23;8.48;;;15.10;99.90;;;;;;4847096;29;20519;-79
2023/06/28 04:39:07;;;;;;;11.82;7.18;;;15.10;99.90;;;;;;4829335;29;20041;-79
2023/06/28 04:41:34;;;;;;;8.57;7.40;;;15.10;99.90;;;;;;4859707;29;20058;-80
2023/06/28 04:44:03;;;;;;;10.80;7.80;;;15.00;99.90;;;;;;4860764;29;20125;-80
2023/06/28 04:46:32;;;;;;;7.75;6.32;;;15.10;99.90;;;;;;4840511;29;20145;-80
2023/06/28 04:49:01;;;;;;;8.00;5.93;;;15.10;99.90;;;;;;4839797;29;20634;-77
2023/06/28 04:51:29;;;;;;;7.82;5.38;;;15.10;99.90;;;;;;4839639;29;20522;-79
2023/06/28 04:53:58;;;;;;;9.30;7.13;;;15.10;99.90;;;;;;4841439;29;20041;-78
2023/06/28 04:56:26;;;;;;;9.18;7.13;;;15.10;99.90;;;;;;4840400;29;20416;-80
2023/06/28 04:58:56;;;;;;;11.93;8.38;;;15.00;99.90;;;;;;4841783;29;20060;-77
2023/06/28 05:01:23;;;;;;;11.75;7.28;;;15.00;99.90;;;;;;4840650;29;20503;-79
2023/06/28 05:03:50;;;;;;;11.10;8.30;;;15.10;99.90;;;;;;4840675;29;20518;-80
2023/06/28 05:06:19;;;;;;;10.75;7.43;;;15.20;99.90;;;;;;4841449;29;20537;-77
2023/06/28 05:08:46;;;;;;;8.52;6.05;;;15.30;99.90;;;;;;4840314;29;20057;-79
2023/06/28 05:11:14;;;;;;;8.98;5.78;;;15.40;99.90;;;;;;4840072;29;20797;-79
2023/06/28 05:13:41;;;;;;;8.95;6.70;;;15.30;99.90;;;;;;4841476;29;20057;-77
2023/06/28 05:16:09;;;;;;;10.23;6.70;;;15.20;99.90;;;;;;4824428;29;20212;-80
2023/06/28 05:18:37;;;;;;;8.80;6.90;;;15.30;99.90;;;;;;4847396;24;20424;-79
2023/06/28 05:21:05;;;;;;;7.85;5.63;;;15.40;99.90;;;;;;4840778;29;20073;-79
2023/06/28 05:23:34;;;;;;;7.47;5.93;;;15.40;99.90;;;;;;4824378;29;20067;-80
2023/06/28 05:26:01;;;;;;;8.93;6.55;;;15.50;99.90;;;;;;4836790;29;20502;-79
2023/06/28 05:28:28;;;;;;;7.88;6.30;;;15.50;99.90;;;;;;4831210;29;20047;-81
2023/06/28 05:30:56;;;;;;;9.52;5.78;;;15.60;99.90;;;;;;4831817;29;20133;-82
2023/06/28 05:33:23;;;;;;;8.80;6.97;;;15.50;99.90;;;;;;4830948;29;20049;-79
2023/06/28 05:35:50;;;;;;;9.73;6.85;;;15.40;99.90;;;;;;4829020;29;20042;-84
2023/06/28 05:38:18;;;;;;;7.53;6.13;;;15.50;99.90;;;;;;4824833;29;20068;-80
2023/06/28 05:40:47;;;;;;;10.52;6.97;;;15.60;99.90;;;;;;4852729;29;20042;-78
2023/06/28 05:43:14;;;;;;;8.38;7.07;;;15.60;99.90;;;;;;4838352;29;20042;-78
2023/06/28 05:45:54;;;;;;;8.18;7.38;;;15.70;99.90;;;;;;4832640;29;20523;-79
2023/06/28 05:48:21;;;;;;;11.25;6.75;;;15.70;99.90;;;;;;4832851;29;20041;-79
2023/06/28 05:50:49;;;;;;;9.02;7.05;;;15.70;99.90;;;;;;4834132;29;20459;-80
2023/06/28 05:53:16;;;;;;;11.02;8.35;;;15.80;99.90;;;;;;4829083;29;20054;-80
2023/06/28 05:55:43;;;;;;;9.82;8.43;;;15.80;99.90;;;;;;4832237;29;20052;-80
2023/06/28 05:58:15;;;;;;;8.77;7.47;;;15.70;99.90;;;;;;4832263;29;20420;-79
2023/06/28 06:00:43;;;;;;;8.68;6.32;;;15.80;99.90;;;;;;4830413;29;20534;-77
2023/06/28 06:03:11;;;;;;;8.38;6.80;;;15.80;99.90;;;;;;4834086;29;20065;-79
2023/06/28 06:05:51;;;;;;;8.50;6.63;;;15.90;99.90;;;;;;4830038;29;20038;-81
2023/06/28 06:08:18;;;;;;;9.30;6.60;;;15.90;99.90;;;;;;4813843;29;20048;-80
2023/06/28 06:10:46;;;;;;;7.95;6.22;;;16.00;99.90;;;;;;4831336;29;20052;-79
2023/06/28 06:13:15;;;;;;;10.30;7.65;;;16.10;99.90;;;;;;4832909;29;20042;-78
2023/06/28 06:15:45;;;;;;;8.32;7.00;;;16.00;99.90;;;;;;4830691;29;20050;-78
2023/06/28 06:18:14;;;;;;;7.50;6.35;;;16.00;99.90;;;;;;4828267;29;20171;-78
2023/06/28 06:20:42;;;;;;;8.52;6.63;;;16.00;99.90;;;;;;4813152;29;20066;-78
2023/06/28 06:23:09;;;;;;;9.85;6.65;;;16.10;99.90;;;;;;4831414;29;20054;-79
2023/06/28 06:25:36;;;;;;;10.02;6.88;;;16.10;99.90;;;;;;4830209;29;20053;-79
2023/06/28 06:28:05;;;;;;;9.43;6.93;;;16.10;99.90;;;;;;4830646;29;20106;-78
2023/06/28 06:30:36;;;;;;;8.02;5.90;;;16.10;99.90;;;;;;4827755;29;20056;-79
2023/06/28 06:33:03;;;;;;;9.60;5.72;;;16.10;99.90;;;;;;4830085;29;20042;-79
2023/06/28 06:35:31;;;;;;;6.93;5.82;;;16.20;99.90;;;;;;4829369;29;20084;-79
2023/06/28 06:38:01;;;;;;;7.78;5.47;;;16.20;99.90;;;;;;4812691;29;20058;-78
2023/06/28 06:40:28;;;;;;;8.68;6.03;;;16.30;99.90;;;;;;4831727;29;20411;-80
2023/06/28 06:42:56;;;;;;;8.15;6.13;;;16.30;99.90;;;;;;4815047;29;20409;-78
2023/06/28 06:45:26;;;;;;;8.80;6.50;;;16.20;99.90;;;;;;4829177;29;20522;-82
2023/06/28 06:47:57;;;;;;;10.18;6.45;;;16.20;99.90;;;;;;4820977;29;20054;-81
2023/06/28 06:50:27;;;;;;;8.57;6.03;;;16.20;99.90;;;;;;4835755;29;20050;-80
2023/06/28 06:52:55;;;;;;;10.40;8.15;;;16.20;99.90;;;;;;4841501;29;20045;-78
2023/06/28 06:55:24;;;;;;;77.25;51.33;;;16.30;99.90;;;;;;4848894;29;20079;-78
2023/06/28 06:57:51;;;;;;;9.07;6.63;;;16.20;99.90;;;;;;4827611;29;20046;-78
2023/06/28 07:00:19;;;;;;;8.00;5.85;;;16.20;99.90;;;;;;4843601;29;20358;-79
2023/06/28 07:02:47;;;;;;;8.63;6.22;;;16.20;99.90;;;;;;4826168;29;20042;-81
2023/06/28 07:05:16;;;;;;;10.10;7.38;;;16.30;99.90;;;;;;4831236;29;20533;-77
2023/06/28 07:07:44;;;;;;;9.45;8.13;;;16.40;99.90;;;;;;4835425;29;20060;-74
2023/06/28 07:10:11;;;;;;;11.25;7.13;;;16.60;99.90;;;;;;4814051;29;20111;-77
2023/06/28 07:12:39;;;;;;;8.82;7.90;;;16.70;99.90;;;;;;4833722;29;20069;-78
2023/06/28 07:15:07;;;;;;;8.75;7.68;;;16.90;99.90;;;;;;4834129;29;20095;-76
2023/06/28 07:17:35;;;;;;;8.88;7.97;;;16.90;99.90;;;;;;4830447;29;20046;-78
2023/06/28 07:20:02;;;;;;;8.15;7.35;;;17.00;99.90;;;;;;4829498;29;20076;-78
2023/06/28 07:22:31;;;;;;;9.57;7.78;;;17.10;99.90;;;;;;4829834;29;20042;-76
2023/06/28 07:25:02;;;;;;;11.52;9.80;;;17.10;99.90;;;;;;4828029;29;20046;-76
2023/06/28 07:27:30;;;;;;;8.90;7.25;;;17.10;99.90;;;;;;4827908;29;20073;-76
2023/06/28 07:29:57;;;;;;;14.35;8.30;;;17.10;99.90;;;;;;4811010;29;20067;-79
2023/06/28 07:32:26;;;;;;;10.48;7.30;;;17.20;99.90;;;;;;4829639;29;20494;-76
2023/06/28 07:34:54;;;;;;;10.57;8.77;;;17.20;99.90;;;;;;4828151;29;20070;-75
2023/06/28 07:37:22;;;;;;;10.57;9.10;;;17.30;99.90;;;;;;4829598;29;20042;-76
2023/06/28 07:39:51;;;;;;;12.80;9.85;;;17.30;99.90;;;;;;4827717;29;20042;-74
2023/06/28 07:42:20;;;;;;;13.48;10.32;;;17.40;99.90;;;;;;4828576;29;20507;-77
2023/06/28 07:44:48;;;;;;;11.88;10.13;;;17.40;99.90;;;;;;4828462;29;20053;-78
2023/06/28 07:47:15;;;;;;;13.38;10.65;;;17.60;99.90;;;;;;4830335;29;20053;-78
2023/06/28 07:49:43;;;;;;;15.02;11.50;;;17.60;99.90;;;;;;4829184;29;20066;-78
2023/06/28 07:52:10;;;;;;;12.32;9.85;;;17.60;99.90;;;;;;4828993;29;20447;-77
2023/06/28 07:54:38;;;;;;;19.30;14.75;;;17.60;99.90;;;;;;4829670;29;20069;-78
2023/06/28 07:57:09;;;;;;;14.18;11.45;;;17.50;99.90;;;;;;4832310;29;20070;-80
2023/06/28 07:59:36;;;;;;;12.13;10.63;;;17.60;99.90;;;;;;4832393;29;20157;-77
2023/06/28 08:02:04;;;;;;;13.35;9.38;;;17.80;99.90;;;;;;4831248;29;20050;-76
2023/06/28 08:04:31;;;;;;;14.63;9.35;;;17.90;99.90;;;;;;4815370;29;20053;-79
2023/06/28 08:06:59;;;;;;;13.15;8.20;;;17.90;99.90;;;;;;4831949;29;20094;-78
2023/06/28 08:09:27;;;;;;;12.48;8.68;;;18.10;99.90;;;;;;4832634;29;20053;-78
2023/06/28 08:11:54;;;;;;;14.73;9.25;;;18.30;99.90;;;;;;4832411;29;20078;-77
2023/06/28 08:14:23;;;;;;;16.52;10.75;;;18.40;99.90;;;;;;4832079;29;20069;-76
2023/06/28 08:16:50;;;;;;;18.73;9.80;;;18.60;99.90;;;;;;4831542;29;20467;-77
2023/06/28 08:19:17;;;;;;;20.17;10.52;;;18.60;99.90;;;;;;4833411;29;20054;-77
2023/06/28 08:21:45;;;;;;;22.02;11.60;;;18.70;99.90;;;;;;4831007;29;20099;-79
2023/06/28 08:24:12;;;;;;;29.45;13.93;;;18.70;99.90;;;;;;4832380;29;20046;-79
2023/06/28 08:26:39;;;;;;;28.77;13.85;;;18.80;99.90;;;;;;4830506;29;20472;-80
2023/06/28 08:29:06;;;;;;;40.83;16.35;;;18.70;99.90;;;;;;4815849;29;20042;-75
2023/06/28 08:31:35;;;;;;;29.42;15.80;;;18.70;99.90;;;;;;4831634;29;20091;-78
2023/06/28 08:34:03;;;;;;;33.65;15.85;;;18.70;99.90;;;;;;4831068;29;20099;-78
2023/06/28 08:36:30;;;;;;;38.28;16.15;;;18.70;99.90;;;;;;4832016;29;20125;-77
2023/06/28 08:38:59;;;;;;;39.22;18.10;;;18.80;99.90;;;;;;4832260;29;20713;-76
2023/06/28 08:41:27;;;;;;;35.10;15.70;;;18.80;99.90;;;;;;4830726;29;20042;-75
2023/06/28 08:43:56;;;;;;;34.90;17.38;;;18.90;99.90;;;;;;4832224;29;20046;-77
2023/06/28 08:46:25;;;;;;;36.92;16.15;;;18.90;99.90;;;;;;4831963;29;20077;-78
2023/06/28 08:48:55;;;;;;;35.15;16.65;;;18.90;99.90;;;;;;4831365;29;20061;-76
2023/06/28 08:51:22;;;;;;;36.15;17.23;;;18.90;99.90;;;;;;4814892;29;20053;-75
2023/06/28 08:53:50;;;;;;;34.97;16.60;;;19.00;99.90;;;;;;4849303;29;20083;-76
2023/06/28 08:56:17;;;;;;;32.20;17.50;;;19.10;99.90;;;;;;4853772;29;20063;-78
2023/06/28 08:58:48;;;;;;;41.17;19.17;;;19.10;99.90;;;;;;4833086;29;20520;-75
2023/06/28 09:01:16;;;;;;;38.17;18.27;;;19.20;99.90;;;;;;4832703;29;20046;-77
2023/06/28 09:03:44;;;;;;;34.15;17.35;;;19.20;99.90;;;;;;4833877;29;20519;-76
2023/06/28 09:06:13;;;;;;;31.30;15.10;;;19.20;99.90;;;;;;4833539;29;20111;-76
2023/06/28 09:08:41;;;;;;;34.53;17.00;;;19.10;99.90;;;;;;4814832;29;20452;-79
2023/06/28 09:11:09;;;;;;;34.55;17.35;;;19.10;99.90;;;;;;4813321;29;20712;-77
2023/06/28 09:13:37;;;;;;;37.22;17.85;;;19.00;99.90;;;;;;4831237;29;20042;-80
2023/06/28 09:16:10;;;;;;;42.30;18.60;;;18.90;99.90;;;;;;4831114;29;20042;-76
2023/06/28 09:18:37;;;;;;;33.20;16.45;;;18.70;99.90;;;;;;4831198;29;20103;-76
2023/06/28 09:21:05;;;;;;;37.58;17.20;;;18.60;99.90;;;;;;4834584;29;20046;-75
2023/06/28 09:23:35;;;;;;;36.63;16.38;;;18.50;99.90;;;;;;4835650;29;20047;-74
2023/06/28 09:26:03;;;;;;;41.88;19.08;;;18.50;99.90;;;;;;4842890;29;20078;-77
2023/06/28 09:28:33;;;;;;;33.67;15.88;;;18.40;99.90;;;;;;4846293;29;20125;-79
2023/06/28 09:31:02;;;;;;;29.25;14.38;;;18.40;99.90;;;;;;4832901;29;20142;-78
2023/06/28 09:33:30;;;;;;;24.02;13.60;;;18.40;99.90;;;;;;4831869;29;20426;-77
2023/06/28 09:35:58;;;;;;;27.02;14.30;;;18.30;99.90;;;;;;4830293;29;20069;-77
2023/06/28 09:38:27;;;;;;;29.38;14.43;;;18.30;99.90;;;;;;4830660;29;20046;-77
2023/06/28 09:40:57;;;;;;;28.25;14.13;;;18.20;99.90;;;;;;4829334;29;20686;-79
2023/06/28 09:43:25;;;;;;;32.63;16.08;;;18.10;99.90;;;;;;4832444;29;20076;-75
2023/06/28 09:45:54;;;;;;;34.92;18.67;;;18.10;99.90;;;;;;4831926;29;20062;-77
2023/06/28 09:48:24;;;;;;;33.17;19.45;;;18.20;99.90;;;;;;4838282;29;20046;-77
2023/06/28 09:50:51;;;;;;;33.70;17.67;;;18.20;99.90;;;;;;4834103;29;20074;-76
2023/06/28 09:53:21;;;;;;;38.80;18.52;;;18.00;99.90;;;;;;4829950;29;20278;-79
2023/06/28 09:55:50;;;;;;;38.92;18.98;;;17.80;99.90;;;;;;4830294;29;20081;-78
2023/06/28 09:58:20;;;;;;;40.38;18.25;;;17.60;99.90;;;;;;4832680;29;20499;-78
2023/06/28 10:00:49;;;;;;;37.10;17.10;;;17.40;99.90;;;;;;4830680;29;20055;-77
2023/06/28 10:03:18;;;;;;;36.38;17.98;;;17.30;99.90;;;;;;4814978;29;20126;-77
2023/06/28 10:05:46;;;;;;;41.67;17.95;;;17.20;99.90;;;;;;4830519;29;20554;-78
2023/06/28 10:08:15;;;;;;;35.15;17.63;;;17.10;99.90;;;;;;4829933;29;20129;-77
2023/06/28 10:10:43;;;;;;;26.60;14.80;;;16.90;99.90;;;;;;4836156;29;20103;-74
2023/06/28 10:13:13;;;;;;;18.05;11.65;;;16.80;99.90;;;;;;4835803;29;20087;-73
2023/06/28 10:15:49;;;;;;;24.05;13.07;;;16.50;99.90;;;;;;4819398;29;20062;-74
2023/06/28 10:18:17;;;;;;;23.67;17.02;;;16.30;99.90;;;;;;4828560;29;20068;-77
2023/06/28 10:20:45;;;;;;;16.58;11.93;;;16.20;99.90;;;;;;4830173;29;20130;-74
2023/06/28 10:23:13;;;;;;;13.88;10.95;;;16.10;99.90;;;;;;4830147;29;20510;-77
2023/06/28 10:25:41;;;;;;;15.82;11.93;;;16.00;99.90;;;;;;4830987;29;20109;-79
2023/06/28 10:28:10;;;;;;;19.48;11.95;;;16.00;99.90;;;;;;4831039;29;20053;-77
2023/06/28 10:30:39;;;;;;;14.95;11.82;;;16.20;99.90;;;;;;4829172;29;20042;-76
2023/06/28 10:33:09;;;;;;;17.13;12.20;;;16.40;99.90;;;;;;4829678;29;20154;-78
2023/06/28 10:35:37;;;;;;;17.73;12.05;;;16.50;99.90;;;;;;4829914;29;20499;-76
2023/06/28 10:38:05;;;;;;;16.52;11.77;;;16.70;99.90;;;;;;4829966;29;20041;-76
2023/06/28 10:40:32;;;;;;;17.20;12.13;;;16.70;99.90;;;;;;4829005;29;20094;-80
2023/06/28 10:43:00;;;;;;;19.30;14.30;;;16.80;99.90;;;;;;4829738;29;20070;-77
2023/06/28 10:45:34;;;;;;;21.63;15.93;;;16.90;99.90;;;;;;4830854;29;20070;-78
2023/06/28 10:48:01;;;;;;;21.92;14.00;;;17.20;99.90;;;;;;4830172;29;20138;-79
2023/06/28 10:50:40;;;;;;;22.45;15.57;;;17.50;99.90;;;;;;4829052;29;20057;-78
2023/06/28 10:53:19;;;;;;;16.83;12.63;;;17.70;99.90;;;;;;4828658;29;20050;-77
2023/06/28 10:56:08;;;;;;;15.90;10.98;;;17.80;99.90;;;;;;4812704;29;20045;-78
2023/06/28 10:58:38;;;;;;;16.30;11.43;;;17.80;99.90;;;;;;4828165;29;20111;-78
2023/06/28 11:01:06;;;;;;;15.10;10.10;;;17.80;99.90;;;;;;4830596;29;20378;-76
2023/06/28 11:03:39;;;;;;;14.48;10.43;;;17.80;99.90;;;;;;4830892;29;20054;-78
2023/06/28 11:06:09;;;;;;;16.52;10.57;;;17.70;99.90;;;;;;4827680;29;20503;-78
2023/06/28 11:08:38;;;;;;;17.42;11.75;;;17.60;99.90;;;;;;4827634;29;20069;-77
2023/06/28 11:11:07;;;;;;;46.53;16.30;;;17.60;99.90;;;;;;4819933;29;20125;-77
2023/06/28 11:13:46;;;;;;;20.08;13.38;;;17.50;99.90;;;;;;4829982;29;20042;-78
2023/06/28 11:16:18;;;;;;;13.60;10.23;;;17.40;99.90;;;;;;4828731;29;20054;-78
2023/06/28 11:18:46;;;;;;;13.32;9.25;;;17.50;99.90;;;;;;4829921;29;20065;-76
2023/06/28 11:21:16;;;;;;;9.52;8.20;;;17.50;99.90;;;;;;4829077;29;20096;-76
2023/06/28 11:23:45;;;;;;;11.27;7.93;;;17.60;99.90;;;;;;4829301;29;20053;-78
2023/06/28 11:26:14;;;;;;;11.32;8.30;;;17.70;99.90;;;;;;4830061;29;20130;-77
2023/06/28 11:28:49;;;;;;;9.43;7.10;;;17.80;99.90;;;;;;4828141;29;20053;-79
2023/06/28 11:31:19;;;;;;;11.07;7.30;;;17.90;99.90;;;;;;4832311;29;20093;-79
2023/06/28 11:33:46;;;;;;;11.15;8.52;;;18.00;99.90;;;;;;4833940;29;20103;-76
2023/06/28 11:36:15;;;;;;;12.60;7.20;;;18.10;99.90;;;;;;4836142;29;20050;-75
2023/06/28 11:38:48;;;;;;;9.48;7.47;;;18.20;99.90;;;;;;4845560;29;20092;-76
2023/06/28 11:41:15;;;;;;;9.57;7.80;;;18.20;99.90;;;;;;4847205;29;20049;-75
2023/06/28 11:43:44;;;;;;;9.35;6.85;;;18.00;99.90;;;;;;4838648;29;20095;-78
2023/06/28 11:46:18;;;;;;;7.00;6.00;;;17.80;99.90;;;;;;4833277;29;20080;-78
2023/06/28 11:48:46;;;;;;;8.95;5.72;;;17.80;99.90;;;;;;4833387;29;20073;-78
2023/06/28 11:51:15;;;;;;;7.88;5.50;;;17.80;99.90;;;;;;4831580;29;20141;-76
2023/06/28 11:53:47;;;;;;;11.68;7.63;;;17.80;99.90;;;;;;4831766;29;20073;-77
2023/06/28 11:56:14;;;;;;;20.42;6.93;;;17.90;99.90;;;;;;4834026;29;20042;-78
2023/06/28 11:58:43;;;;;;;8.65;6.95;;;17.90;99.90;;;;;;4834127;29;20063;-75
2023/06/28 12:01:20;;;;;;;10.45;8.50;;;18.00;99.90;;;;;;4835406;29;20059;-77
2023/06/28 12:03:48;;;;;;;8.77;6.18;;;18.00;99.90;;;;;;4833462;29;20050;-76
2023/06/28 12:06:17;;;;;;;8.82;6.25;;;18.10;99.90;;;;;;4833790;29;20100;-76
2023/06/28 12:08:44;;;;;;;9.85;8.48;;;18.30;99.90;;;;;;4848632;29;20066;-76
2023/06/28 12:11:14;;;;;;;11.95;7.13;;;18.60;99.90;;;;;;4849572;29;20087;-78
2023/06/28 12:13:44;;;;;;;10.15;8.45;;;18.80;99.90;;;;;;4833950;29;20042;-74
2023/06/28 12:16:15;;;;;;;13.45;8.25;;;19.10;99.90;;;;;;4832496;29;20050;-78
2023/06/28 12:18:54;;;;;;;10.95;6.90;;;19.20;99.90;;;;;;4835579;29;20062;-79
2023/06/28 12:21:23;;;;;;;8.57;6.03;;;19.30;99.90;;;;;;4835039;29;20046;-77
2023/06/28 12:23:51;;;;;;;9.05;5.95;;;19.40;99.90;;;;;;4814600;29;20518;-75
2023/06/28 12:26:18;;;;;;;8.10;5.78;;;19.40;99.90;;;;;;4832483;29;20133;-74
2023/06/28 12:28:49;;;;;;;10.75;6.32;;;19.40;99.90;;;;;;4831248;29;20046;-75
2023/06/28 12:31:17;;;;;;;13.43;8.27;;;19.50;99.90;;;;;;4832001;29;20046;-75
2023/06/28 12:33:52;;;;;;;8.20;5.78;;;19.70;99.90;;;;;;4831966;29;20057;-76
2023/06/28 12:36:20;;;;;;;8.45;5.68;;;19.70;99.90;;;;;;4832736;29;20110;-79
2023/06/28 12:38:51;;;;;;;9.43;6.47;;;19.80;99.90;;;;;;4831280;29;20061;-78
2023/06/28 12:41:18;;;;;;;7.32;5.03;;;19.60;99.90;;;;;;4829967;29;20049;-77
2023/06/28 12:43:57;;;;;;;5.90;4.20;;;19.70;99.90;;;;;;4832554;29;20443;-76
2023/06/28 12:46:24;;;;;;;6.47;5.28;;;19.70;99.90;;;;;;4832926;29;20051;-77